Time;durP1;ratioP1;P1;durP2;ratioP2;P2;SDS_P1;SDS_P2;PMS_P1;PMS_P2;Temp;Humidity;BMP_temperature;BMP_pressure;BME280_temperature;BME280_humidity;BME280_pressure;Samples;Min_cycle;Max_cycle;Signal;HPM_P1;HPM_P2
2023/01/16 00:00:15;;;;;;;;;;;11.70;99.90;;;;;;5089802;28;19912;-66
2023/01/16 00:02:41;;;;;;;;;;;11.70;99.90;;;;;;5090021;28;19961;-63
2023/01/16 00:05:07;;;;;;;;;;;11.70;99.90;;;;;;5088047;28;19934;-62
2023/01/16 00:07:32;;;;;;;;;;;11.70;99.90;;;;;;5090323;28;19920;-64
2023/01/16 00:09:58;;;;;;;;;;;11.70;99.90;;;;;;5093543;28;20483;-65
2023/01/16 00:12:23;;;;;;;;;;;11.70;99.90;;;;;;5088511;28;19920;-63
2023/01/16 00:14:49;;;;;;;;;;;11.70;99.90;;;;;;5056982;28;19919;-63
2023/01/16 00:17:14;;;;;;;;;;;11.70;99.90;;;;;;5102418;28;19934;-64
2023/01/16 00:19:40;;;;;;;;;;;11.60;99.90;;;;;;5088495;28;19995;-63
2023/01/16 00:22:05;;;;;;;;;;;11.60;99.90;;;;;;5089883;28;20031;-64
2023/01/16 00:24:31;;;;;;;;;;;11.70;99.90;;;;;;5087445;28;20386;-63
2023/01/16 00:26:56;;;;;;;;;;;11.70;99.90;;;;;;5094341;28;20331;-64
2023/01/16 00:29:22;;;;;;;;;;;11.70;99.90;;;;;;5101129;28;20501;-63
2023/01/16 00:31:47;;;;;;;;;;;11.70;99.90;;;;;;5090572;28;19943;-64
2023/01/16 00:34:13;;;;;;;;;;;11.70;99.90;;;;;;5099738;28;19959;-64
2023/01/16 00:36:39;;;;;;;;;;;11.70;99.90;;;;;;5107480;28;19908;-63
2023/01/16 00:39:05;;;;;;;;;;;11.60;99.90;;;;;;5096637;28;19943;-63
2023/01/16 00:41:31;;;;;;;;;;;11.70;99.90;;;;;;5096652;28;20353;-63
2023/01/16 00:43:58;;;;;;;;;;;11.70;99.90;;;;;;5095834;28;19973;-64
2023/01/16 00:46:24;;;;;;;;;;;11.60;99.90;;;;;;5098598;28;20445;-64
2023/01/16 00:48:50;;;;;;;;;;;11.60;99.90;;;;;;5100493;28;19943;-63
2023/01/16 00:51:16;;;;;;;;;;;11.60;99.90;;;;;;5101422;28;19962;-63
2023/01/16 00:53:41;;;;;;;;;;;11.60;99.90;;;;;;5092124;28;19942;-63
2023/01/16 00:56:07;;;;;;;;;;;11.60;99.90;;;;;;5087448;28;19912;-62
2023/01/16 00:58:34;;;;;;;;;;;11.60;99.90;;;;;;5100010;28;19919;-64
2023/01/16 01:01:00;;;;;;;;;;;11.60;99.90;;;;;;5100289;28;20341;-63
2023/01/16 01:03:27;;;;;;;;;;;11.50;99.90;;;;;;5097749;28;19916;-63
2023/01/16 01:05:52;;;;;;;;;;;11.50;99.90;;;;;;5100197;28;19919;-64
2023/01/16 01:08:18;;;;;;;;;;;11.50;99.90;;;;;;5093271;28;19982;-64
2023/01/16 01:10:43;;;;;;;;;;;11.50;99.90;;;;;;5100725;28;20003;-64
2023/01/16 01:13:09;;;;;;;;;;;11.50;99.90;;;;;;5089030;28;19919;-64
2023/01/16 01:15:35;;;;;;;;;;;11.60;99.90;;;;;;5096477;28;19919;-65
2023/01/16 01:18:00;;;;;;;;;;;11.50;99.90;;;;;;5094034;28;19935;-63
2023/01/16 01:20:26;;;;;;;;;;;11.50;99.90;;;;;;5100976;28;19912;-64
2023/01/16 01:22:51;;;;;;;;;;;11.40;99.90;;;;;;5097632;28;19932;-64
2023/01/16 01:25:17;;;;;;;;;;;11.40;99.90;;;;;;5097559;28;20387;-67
2023/01/16 01:27:43;;;;;;;;;;;11.30;99.90;;;;;;5093681;28;19912;-62
2023/01/16 01:30:09;;;;;;;;;;;11.10;99.90;;;;;;5099224;28;20396;-65
2023/01/16 01:32:36;;;;;;;;;;;11.00;99.90;;;;;;5087031;28;19920;-63
2023/01/16 01:35:03;;;;;;;;;;;11.00;99.90;;;;;;5077917;28;20400;-65
2023/01/16 01:37:29;;;;;;;;;;;11.00;99.90;;;;;;5097367;28;19912;-64
2023/01/16 01:39:54;;;;;;;;;;;10.90;99.90;;;;;;5097467;28;20331;-64
2023/01/16 01:45:13;;;;;;;;;;;10.80;99.90;;;;;;5092757;28;19919;-65
2023/01/16 01:47:43;;;;;;;;;;;10.80;99.90;;;;;;5093056;28;20373;-64
2023/01/16 01:50:13;;;;;;;;;;;10.70;99.90;;;;;;5091925;28;20002;-64
2023/01/16 01:52:39;;;;;;;;;;;10.70;99.90;;;;;;5098579;28;19984;-63
2023/01/16 01:55:07;;;;;;;;;;;10.60;99.90;;;;;;5092816;28;20029;-66
2023/01/16 01:57:34;;;;;;;;;;;10.70;99.90;;;;;;5086020;28;20007;-65
2023/01/16 02:00:03;;;;;;;;;;;10.70;99.90;;;;;;5093505;28;20362;-64
2023/01/16 02:02:33;;;;;;;;;;;10.60;99.90;;;;;;5092912;28;19912;-64
2023/01/16 02:04:59;;;;;;;;;;;10.60;99.90;;;;;;5090118;28;19974;-65
2023/01/16 02:07:26;;;;;;;;;;;10.70;99.90;;;;;;5079162;28;20017;-64
2023/01/16 02:09:59;;;;;;;;;;;10.60;99.90;;;;;;5075448;28;20752;-64
2023/01/16 02:12:25;;;;;;;;;;;10.50;99.90;;;;;;5077997;28;19912;-65
2023/01/16 02:14:51;;;;;;;;;;;10.50;99.90;;;;;;5078314;28;20345;-64
2023/01/16 02:20:12;;;;;;;;;;;10.40;99.90;;;;;;5077718;28;20707;-65
2023/01/16 02:22:56;;;;;;;;;;;10.50;99.90;;;;;;5085193;28;19921;-65
2023/01/16 02:25:37;;;;;;;;;;;10.50;99.90;;;;;;5096609;28;19926;-65
2023/01/16 02:28:05;;;;;;;;;;;10.50;99.90;;;;;;5096188;28;19916;-65
2023/01/16 02:30:50;;;;;;;;;;;10.50;99.90;;;;;;5095861;28;20003;-64
2023/01/16 02:33:25;;;;;;;;;;;10.50;99.90;;;;;;5092810;28;20362;-65
2023/01/16 02:36:03;;;;;;;;;;;10.50;99.90;;;;;;5108789;28;19911;-65
2023/01/16 02:38:28;;;;;;;;;;;10.50;99.90;;;;;;5103018;28;19972;-64
2023/01/16 02:41:13;;;;;;;;;;;10.50;99.90;;;;;;5085258;28;19920;-65
2023/01/16 02:44:00;;;;;;;;;;;10.50;99.90;;;;;;5099763;28;20021;-64
2023/01/16 02:46:38;;;;;;;;;;;10.50;99.90;;;;;;5103936;28;19916;-65
2023/01/16 02:49:21;;;;;;;;;;;10.40;99.90;;;;;;5104027;28;19972;-68
2023/01/16 02:51:56;;;;;;;;;;;10.40;99.90;;;;;;5100844;28;20041;-64
2023/01/16 02:54:27;;;;;;;;;;;10.30;99.90;;;;;;5083037;28;19955;-64
2023/01/16 02:56:57;;;;;;;;;;;10.30;99.90;;;;;;5102113;28;19927;-65
2023/01/16 02:59:24;;;;;;;;;;;10.30;99.90;;;;;;5100057;28;19915;-63
2023/01/16 03:01:50;;;;;;;;;;;10.30;99.90;;;;;;5102921;28;19937;-64
2023/01/16 03:04:34;;;;;;;;;;;10.40;99.90;;;;;;5094935;28;20018;-64
2023/01/16 03:07:22;;;;;;;;;;;10.30;99.90;;;;;;5106685;28;19989;-63
2023/01/16 03:09:58;;;;;;;;;;;10.10;99.90;;;;;;5071788;28;20358;-65
2023/01/16 03:12:35;;;;;;;;;;;9.90;99.90;;;;;;5089200;28;20462;-66
2023/01/16 03:15:09;;;;;;;;;;;9.70;99.90;;;;;;5095194;28;19919;-65
2023/01/16 03:17:53;;;;;;;;;;;9.50;99.90;;;;;;5081944;28;19912;-66
2023/01/16 03:20:19;;;;;;;;;;;9.30;99.90;;;;;;5084494;28;20294;-64
2023/01/16 03:22:52;;;;;;;;;;;9.30;99.90;;;;;;5093905;28;19923;-66
2023/01/16 03:25:43;;;;;;;;;;;9.20;99.90;;;;;;5102155;28;19915;-64
2023/01/16 03:28:13;;;;;;;;;;;9.10;99.90;;;;;;5085866;28;19920;-64
2023/01/16 03:30:48;;;;;;;;;;;8.90;99.90;;;;;;5093141;28;20042;-65
2023/01/16 03:33:23;;;;;;;;;;;8.80;99.90;;;;;;5099338;28;19911;-65
2023/01/16 03:35:51;;;;;;;;;;;8.70;99.90;;;;;;5104887;28;19912;-64
2023/01/16 03:38:18;;;;;;;;;;;8.60;99.90;;;;;;5094248;28;20011;-64
2023/01/16 03:40:46;;;;;;;;;;;8.50;99.90;;;;;;5099679;28;20555;-67
2023/01/16 03:43:13;;;;;;;;;;;8.40;99.90;;;;;;5104101;28;20429;-65
2023/01/16 03:45:54;;;;;;;;;;;8.40;99.90;;;;;;5103468;28;19923;-63
2023/01/16 03:48:33;;;;;;;;;;;8.40;99.90;;;;;;5091091;28;20369;-65
2023/01/16 03:51:01;;;;;;;;;;;8.30;99.90;;;;;;5090516;28;19979;-63
2023/01/16 03:53:29;;;;;;;;;;;8.30;99.90;;;;;;5090386;28;20022;-65
2023/01/16 03:56:00;;;;;;;;;;;8.40;99.90;;;;;;5083032;28;20362;-65
2023/01/16 03:58:31;;;;;;;;;;;8.40;99.90;;;;;;5089265;28;19938;-66
2023/01/16 04:01:00;;;;;;;;;;;8.40;99.90;;;;;;5095941;28;20442;-65
2023/01/16 04:03:29;;;;;;;;;;;8.40;99.90;;;;;;5108418;28;19988;-65
2023/01/16 04:06:01;;;;;;;;;;;8.40;99.90;;;;;;5093126;28;19920;-64
2023/01/16 04:08:31;;;;;;;;;;;8.30;99.90;;;;;;5089965;28;19908;-65
2023/01/16 04:10:57;;;;;;;;;;;8.30;99.90;;;;;;5099809;28;19999;-63
2023/01/16 04:13:25;;;;;;;;;;;8.30;99.90;;;;;;5092277;28;20535;-65
2023/01/16 04:15:52;;;;;;;;;;;8.30;99.90;;;;;;5102768;28;19923;-64
2023/01/16 04:18:19;;;;;;;;;;;8.20;99.90;;;;;;5092403;28;20448;-65
2023/01/16 04:20:46;;;;;;;;;;;8.10;99.90;;;;;;5094131;28;19984;-65
2023/01/16 04:23:12;;;;;;;;;;;8.10;99.90;;;;;;5091425;28;20290;-63
2023/01/16 04:25:38;;;;;;;;;;;8.00;99.90;;;;;;5081140;28;19922;-65
2023/01/16 04:28:04;;;;;;;;;;;7.90;99.90;;;;;;5088413;28;20429;-64
2023/01/16 04:30:29;;;;;;;;;;;7.90;99.90;;;;;;5102446;28;20319;-65
2023/01/16 04:32:55;;;;;;;;;;;7.80;99.90;;;;;;5093285;28;19998;-67
2023/01/16 04:35:21;;;;;;;;;;;7.80;99.90;;;;;;5103482;28;20259;-65
2023/01/16 04:37:46;;;;;;;;;;;7.80;99.90;;;;;;5095053;28;20029;-65
2023/01/16 04:40:12;;;;;;;;;;;7.80;99.90;;;;;;5087517;28;19991;-64
2023/01/16 04:42:38;;;;;;;;;;;7.80;99.90;;;;;;5101755;28;20230;-65
2023/01/16 04:45:03;;;;;;;;;;;7.80;99.90;;;;;;5105859;28;20308;-65
2023/01/16 04:47:29;;;;;;;;;;;7.70;99.90;;;;;;5097514;28;20331;-64
2023/01/16 04:49:55;;;;;;;;;;;7.80;99.90;;;;;;5100801;28;19908;-64
2023/01/16 04:52:20;;;;;;;;;;;7.70;99.90;;;;;;5101765;28;19920;-64
2023/01/16 04:54:46;;;;;;;;;;;7.70;99.90;;;;;;5095674;28;19912;-64
2023/01/16 04:57:11;;;;;;;;;;;7.70;99.90;;;;;;5094126;28;19916;-64
2023/01/16 04:59:37;;;;;;;;;;;7.70;99.90;;;;;;5087148;28;20010;-63
2023/01/16 05:02:02;;;;;;;;;;;7.80;99.90;;;;;;5096695;28;19974;-65
2023/01/16 05:04:28;;;;;;;;;;;7.80;99.90;;;;;;5109063;28;19963;-64
2023/01/16 05:06:53;;;;;;;;;;;7.80;99.90;;;;;;5098699;28;19916;-67
2023/01/16 05:09:19;;;;;;;;;;;7.80;99.90;;;;;;5108683;28;19912;-65
2023/01/16 05:11:45;;;;;;;;;;;7.80;99.90;;;;;;5105250;28;19915;-65
2023/01/16 05:14:10;;;;;;;;;;;7.80;99.90;;;;;;5104169;28;19912;-65
2023/01/16 05:16:36;;;;;;;;;;;7.90;99.90;;;;;;5098768;28;19969;-65
2023/01/16 05:19:02;;;;;;;;;;;7.90;99.90;;;;;;5110419;28;20333;-64
2023/01/16 05:21:28;;;;;;;;;;;7.90;99.90;;;;;;5095023;28;19912;-64
2023/01/16 05:23:53;;;;;;;;;;;8.00;99.90;;;;;;5093634;28;19908;-64
2023/01/16 05:26:19;;;;;;;;;;;8.00;99.90;;;;;;5086317;28;19931;-66
2023/01/16 05:28:45;;;;;;;;;;;8.00;99.90;;;;;;5092956;28;20270;-66
2023/01/16 05:31:10;;;;;;;;;;;8.00;99.90;;;;;;5085726;28;19954;-64
2023/01/16 05:33:36;;;;;;;;;;;8.00;99.90;;;;;;5111705;28;19962;-64
2023/01/16 05:36:02;;;;;;;;;;;8.10;99.90;;;;;;5108977;28;20285;-65
2023/01/16 05:38:27;;;;;;;;;;;8.10;99.90;;;;;;5101370;28;19916;-65
2023/01/16 05:40:53;;;;;;;;;;;8.10;99.90;;;;;;5102178;28;19919;-66
2023/01/16 05:43:19;;;;;;;;;;;8.10;99.90;;;;;;5100157;28;19912;-66
2023/01/16 05:45:44;;;;;;;;;;;8.10;99.90;;;;;;5092375;28;20018;-64
2023/01/16 05:48:10;;;;;;;;;;;8.10;99.90;;;;;;5099285;28;19912;-65
2023/01/16 05:50:35;;;;;;;;;;;8.10;99.90;;;;;;5087560;28;19920;-63
2023/01/16 05:53:01;;;;;;;;;;;8.10;99.90;;;;;;5094132;28;19912;-66
2023/01/16 05:55:27;;;;;;;;;;;8.10;99.90;;;;;;5084166;28;19912;-65
2023/01/16 05:57:52;;;;;;;;;;;8.10;99.90;;;;;;5094442;28;20324;-64
2023/01/16 06:00:18;;;;;;;;;;;8.10;99.90;;;;;;5109683;28;20309;-64
2023/01/16 06:02:46;;;;;;;;;;;8.10;99.90;;;;;;5077490;28;19919;-64
2023/01/16 06:05:12;;;;;;;;;;;8.20;99.90;;;;;;5090975;28;20010;-65
2023/01/16 06:07:37;;;;;;;;;;;8.20;99.90;;;;;;5082243;28;19974;-64
2023/01/16 06:10:03;;;;;;;;;;;8.20;99.90;;;;;;5095447;28;19916;-65
2023/01/16 06:12:31;;;;;;;;;;;8.10;99.90;;;;;;5105298;28;19986;-64
2023/01/16 06:14:57;;;;;;;;;;;8.10;99.90;;;;;;5100945;28;19907;-65
2023/01/16 06:17:23;;;;;;;;;;;8.10;99.90;;;;;;5088281;28;19912;-64
2023/01/16 06:19:49;;;;;;;;;;;8.10;99.90;;;;;;5098430;28;19956;-64
2023/01/16 06:22:14;;;;;;;;;;;8.20;99.90;;;;;;5100162;28;20021;-66
2023/01/16 06:24:40;;;;;;;;;;;8.20;99.90;;;;;;5099745;28;19939;-66
2023/01/16 06:27:06;;;;;;;;;;;8.30;99.90;;;;;;5089013;28;19915;-63
2023/01/16 06:29:31;;;;;;;;;;;8.30;99.90;;;;;;5092892;28;20046;-66
2023/01/16 06:31:57;;;;;;;;;;;8.30;99.90;;;;;;5087984;28;19955;-65
2023/01/16 06:34:22;;;;;;;;;;;8.30;99.90;;;;;;5093457;28;19923;-64
2023/01/16 06:36:49;;;;;;;;;;;8.30;99.90;;;;;;5089957;28;19912;-65
2023/01/16 06:39:15;;;;;;;;;;;8.20;99.90;;;;;;5098926;28;19935;-66
2023/01/16 06:41:40;;;;;;;;;;;8.20;99.90;;;;;;5086042;28;20353;-65
2023/01/16 06:44:06;;;;;;;;;;;8.10;99.90;;;;;;5081290;28;19924;-63
2023/01/16 06:46:32;;;;;;;;;;;8.10;99.90;;;;;;5099141;28;20241;-64
2023/01/16 06:48:57;;;;;;;;;;;8.00;99.90;;;;;;5084139;28;19913;-64
2023/01/16 06:51:23;;;;;;;;;;;8.10;99.90;;;;;;5078646;28;20527;-64
2023/01/16 06:53:48;;;;;;;;;;;8.00;99.90;;;;;;5093142;28;19994;-64
2023/01/16 06:56:14;;;;;;;;;;;8.10;99.90;;;;;;5081004;28;20058;-63
2023/01/16 06:58:40;;;;;;;;;;;8.10;99.90;;;;;;5098510;28;19978;-63
2023/01/16 07:01:06;;;;;;;;;;;8.10;99.90;;;;;;5086835;28;20353;-65
2023/01/16 07:03:32;;;;;;;;;;;8.10;99.90;;;;;;5091291;28;20304;-65
2023/01/16 07:05:58;;;;;;;;;;;8.10;99.90;;;;;;5090248;28;19928;-64
2023/01/16 07:08:23;;;;;;;;;;;8.10;99.90;;;;;;5084752;28;20241;-65
2023/01/16 07:10:49;;;;;;;;;;;8.10;99.90;;;;;;5090931;28;20002;-66
2023/01/16 07:13:14;;;;;;;;;;;8.00;99.90;;;;;;5088074;28;20009;-64
2023/01/16 07:24:03;;;;;;;;;;;7.90;99.90;;;;;;5097584;28;20011;-64
2023/01/16 07:26:28;;;;;;;;;;;8.00;99.90;;;;;;5101460;28;20235;-64
2023/01/16 07:28:55;;;;;;;;;;;8.10;99.90;;;;;;5084396;28;19994;-63
2023/01/16 07:31:21;;;;;;;;;;;8.10;99.90;;;;;;5097032;28;19909;-63
2023/01/16 07:33:46;;;;;;;;;;;8.10;99.90;;;;;;5099209;28;19912;-63
2023/01/16 07:36:12;;;;;;;;;;;8.10;99.90;;;;;;5097162;28;19963;-64
2023/01/16 07:38:37;;;;;;;;;;;8.10;99.90;;;;;;5092373;28;19919;-63
2023/01/16 07:41:03;;;;;;;;;;;8.10;99.90;;;;;;5099390;28;20426;-62
2023/01/16 07:43:29;;;;;;;;;;;8.00;99.90;;;;;;5090266;28;19909;-61
2023/01/16 07:45:54;;;;;;;;;;;7.90;99.90;;;;;;5085481;28;19916;-62
2023/01/16 07:48:20;;;;;;;;;;;7.70;99.90;;;;;;5089068;28;19916;-62
2023/01/16 07:50:51;;;;;;;;;;;7.50;99.90;;;;;;5091466;28;19916;-62
2023/01/16 07:53:21;;;;;;;;;;;7.50;99.90;;;;;;5089138;28;20461;-64
2023/01/16 07:55:50;;;;;;;;;;;7.50;99.90;;;;;;5080799;28;20447;-64
2023/01/16 07:58:16;;;;;;;;;;;7.50;99.90;;;;;;5088561;28;20039;-62
2023/01/16 08:00:41;;;;;;;;;;;7.50;99.90;;;;;;5103870;28;19947;-63
2023/01/16 08:03:07;;;;;;;;;;;7.40;99.90;;;;;;5092264;28;19951;-63
2023/01/16 08:05:32;;;;;;;;;;;7.30;99.90;;;;;;5090274;28;19923;-63
2023/01/16 08:07:58;;;;;;;;;;;7.10;99.90;;;;;;5095760;28;20012;-61
2023/01/16 08:10:23;;;;;;;;;;;7.10;99.90;;;;;;5069971;28;19920;-64
2023/01/16 08:12:49;;;;;;;;;;;7.10;99.90;;;;;;5084100;28;20393;-63
2023/01/16 08:15:14;;;;;;;;;;;7.10;99.90;;;;;;5088561;28;19915;-63
2023/01/16 08:17:40;;;;;;;;;;;7.10;99.90;;;;;;5090573;28;19908;-64
2023/01/16 08:20:07;;;;;;;;;;;7.20;99.90;;;;;;5093141;28;19911;-64
2023/01/16 08:22:32;;;;;;;;;;;7.30;99.90;;;;;;5096497;28;19916;-62
2023/01/16 08:24:58;;;;;;;;;;;7.30;99.90;;;;;;5089833;28;19989;-60
2023/01/16 08:27:23;;;;;;;;;;;7.20;99.90;;;;;;5085576;28;19923;-61
2023/01/16 08:29:49;;;;;;;;;;;7.20;99.90;;;;;;5096556;28;19912;-59
2023/01/16 08:32:14;;;;;;;;;;;7.10;99.90;;;;;;5095940;28;20362;-56
2023/01/16 08:34:41;;;;;;;;;;;7.00;99.90;;;;;;5103756;28;19923;-51
2023/01/16 08:37:10;;;;;;;;;;;6.90;99.90;;;;;;5091203;28;19943;-54
2023/01/16 08:39:38;;;;;;;;;;;6.90;99.90;;;;;;5080273;28;19920;-56
2023/01/16 08:53:01;;;;;;;;;;;6.90;99.90;;;;;;5085942;28;19920;-61
2023/01/16 08:55:27;;;;;;;;;;;6.90;99.90;;;;;;5084717;28;19916;-62
2023/01/16 08:57:52;;;;;;;;;;;6.90;99.90;;;;;;5082869;28;19973;-61
2023/01/16 09:00:19;;;;;;;;;;;7.00;99.90;;;;;;5077909;28;19934;-61
2023/01/16 09:02:45;;;;;;;;;;;7.00;99.90;;;;;;5091733;28;19940;-61
2023/01/16 09:05:12;;;;;;;;;;;7.00;99.90;;;;;;5091587;28;19968;-61
2023/01/16 09:07:38;;;;;;;;;;;7.00;99.90;;;;;;5096655;28;20349;-61
2023/01/16 09:10:03;;;;;;;;;;;7.10;99.90;;;;;;5105168;28;19908;-65
2023/01/16 09:15:13;;;;;;;;;;;7.10;99.90;;;;;;5085807;28;19958;-63
2023/01/16 09:17:38;;;;;;;;;;;7.10;99.90;;;;;;5095846;28;20004;-61
2023/01/16 09:20:04;;;;;;;;;;;7.10;99.90;;;;;;5080211;28;19958;-63
2023/01/16 09:22:30;;;;;;;;;;;7.20;99.90;;;;;;5094286;28;19952;-59
2023/01/16 09:24:56;;;;;;;;;;;7.20;99.90;;;;;;5068085;28;20432;-61
2023/01/16 09:27:24;;;;;;;;;;;7.20;99.90;;;;;;5085875;28;19912;-63
2023/01/16 09:29:50;;;;;;;;;;;7.20;99.90;;;;;;5098949;28;19919;-62
2023/01/16 09:32:16;;;;;;;;;;;7.20;99.90;;;;;;5089662;28;19912;-61
2023/01/16 09:34:42;;;;;;;;;;;7.20;99.90;;;;;;5096948;28;19914;-60
2023/01/16 09:37:08;;;;;;;;;;;7.20;99.90;;;;;;5104510;28;19919;-62
2023/01/16 09:39:33;;;;;;;;;;;7.20;99.90;;;;;;5103617;28;19908;-62
2023/01/16 09:44:44;;;;;;;;;;;7.30;99.90;;;;;;5079869;28;19919;-61
2023/01/16 09:47:09;;;;;;;;;;;7.40;99.90;;;;;;5092688;28;19935;-66
2023/01/16 09:49:49;;;;;;;;;;;7.50;99.90;;;;;;5101466;28;19988;-59
2023/01/16 10:00:34;;;;;;;;;;;7.70;99.90;;;;;;5101360;28;19943;-63
2023/01/16 10:02:59;;;;;;;;;;;7.60;99.90;;;;;;5077768;28;19913;-60
2023/01/16 10:05:30;;;;;;;;;;;7.60;99.90;;;;;;5082149;28;20026;-60
2023/01/16 10:07:59;;;;;;;;;;;7.60;99.90;;;;;;5103728;28;19932;-60
2023/01/16 10:10:43;;;;;;;;;;;7.40;99.90;;;;;;5072941;28;19951;-60
2023/01/16 10:13:28;;;;;;;;;;;7.40;99.90;;;;;;5097315;28;19912;-60
2023/01/16 10:15:56;;;;;;;;;;;7.40;99.90;;;;;;5091149;28;19912;-61
2023/01/16 10:18:30;;;;;;;;;;;7.40;99.90;;;;;;5106026;28;19944;-60
2023/01/16 10:20:58;;;;;;;;;;;7.40;99.90;;;;;;5087635;28;20356;-61
2023/01/16 10:23:32;;;;;;;;;;;7.30;99.90;;;;;;5092118;28;19997;-63
2023/01/16 10:25:58;;;;;;;;;;;7.20;99.90;;;;;;5076782;28;20269;-60
2023/01/16 10:28:34;;;;;;;;;;;7.30;99.90;;;;;;5106991;28;19920;-59
2023/01/16 10:31:05;;;;;;;;;;;7.30;99.90;;;;;;5103812;28;19957;-60
2023/01/16 10:33:38;;;;;;;;;;;7.40;99.90;;;;;;5078939;28;19912;-62
2023/01/16 10:36:04;;;;;;;;;;;7.40;99.90;;;;;;5104245;28;19957;-62
2023/01/16 10:38:45;;;;;;;;;;;7.50;99.90;;;;;;5103778;28;19920;-60
2023/01/16 10:50:00;;;;;;;;;;;7.50;99.90;;;;;;5096199;28;19992;-65
2023/01/16 10:52:26;;;;;;;;;;;7.60;99.90;;;;;;5075345;28;19916;-60
2023/01/16 10:54:53;;;;;;;;;;;7.60;99.90;;;;;;5105501;28;19922;-61
2023/01/16 10:57:20;;;;;;;;;;;7.70;99.90;;;;;;5112779;28;19915;-63
2023/01/16 10:59:46;;;;;;;;;;;7.90;99.90;;;;;;5099698;28;20008;-62
2023/01/16 11:02:23;;;;;;;;;;;8.00;99.90;;;;;;5096195;28;19926;-62
2023/01/16 11:04:48;;;;;;;;;;;8.10;99.90;;;;;;5094243;28;19916;-63
2023/01/16 11:07:19;;;;;;;;;;;8.10;99.90;;;;;;5097380;28;19924;-63
2023/01/16 11:09:47;;;;;;;;;;;8.20;99.90;;;;;;5103453;28;19912;-62
2023/01/16 11:20:45;;;;;;;;;;;8.80;99.90;;;;;;5097680;28;20267;-62
2023/01/16 11:23:11;;;;;;;;;;;8.90;99.90;;;;;;5103011;28;19920;-63
2023/01/16 11:25:36;;;;;;;;;;;9.10;99.90;;;;;;5102804;28;19960;-63
2023/01/16 11:28:05;;;;;;;;;;;9.20;99.90;;;;;;5080644;28;19954;-63
2023/01/16 11:30:32;;;;;;;;;;;9.30;99.90;;;;;;5083855;28;19942;-63
2023/01/16 11:32:58;;;;;;;;;;;9.40;99.90;;;;;;5081286;28;19920;-63
2023/01/16 11:35:32;;;;;;;;;;;9.40;99.90;;;;;;5104812;28;19931;-62
2023/01/16 11:37:58;;;;;;;;;;;9.50;99.90;;;;;;5078787;28;19919;-63
2023/01/16 11:40:25;;;;;;;;;;;9.50;99.90;;;;;;5110666;28;19914;-63
2023/01/16 11:48:28;;;;;;;;;;;9.70;99.90;;;;;;5091159;28;19915;-64
2023/01/16 11:50:55;;;;;;;;;;;9.80;99.90;;;;;;5087250;28;19912;-61
2023/01/16 11:53:21;;;;;;;;;;;9.80;99.90;;;;;;5074817;28;19909;-62
2023/01/16 11:56:02;;;;;;;;;;;9.90;99.90;;;;;;5087128;28;19916;-64
2023/01/16 11:58:31;;;;;;;;;;;10.00;99.90;;;;;;5091119;28;20286;-63
2023/01/16 12:01:00;;;;;;;;;;;10.00;99.90;;;;;;5073258;28;19915;-61
2023/01/16 12:03:29;;;;;;;;;;;10.10;99.90;;;;;;5073074;28;19915;-63
2023/01/16 12:05:54;;;;;;;;;;;10.00;99.90;;;;;;5090765;28;19938;-63
2023/01/16 12:08:40;;;;;;;;;;;10.00;99.90;;;;;;5091546;28;19912;-63
2023/01/16 12:11:35;;;;;;;;;;;10.00;99.90;;;;;;5095358;28;19995;-64
2023/01/16 12:14:20;;;;;;;;;;;10.00;99.90;;;;;;5011975;28;19913;-63
2023/01/16 12:17:01;;;;;;;;;;;10.10;99.90;;;;;;5095558;28;20413;-64
2023/01/16 12:19:42;;;;;;;;;;;10.10;99.90;;;;;;5101899;28;19923;-62
2023/01/16 12:22:14;;;;;;;;;;;10.10;99.90;;;;;;5097816;28;20305;-63
2023/01/16 12:24:57;;;;;;;;;;;10.00;99.90;;;;;;5098945;28;20283;-62
2023/01/16 12:27:42;;;;;;;;;;;10.00;99.90;;;;;;5092468;28;20281;-64
2023/01/16 12:30:24;;;;;;;;;;;10.10;99.90;;;;;;5074755;28;19913;-64
2023/01/16 12:33:13;;;;;;;;;;;10.10;99.90;;;;;;5087284;28;20289;-61
2023/01/16 12:35:58;;;;;;;;;;;10.20;99.90;;;;;;5083222;28;19915;-63
2023/01/16 12:38:33;;;;;;;;;;;10.30;99.90;;;;;;5084017;28;19970;-63
2023/01/16 12:43:17;;;;;;;;;;;10.50;99.90;;;;;;5094299;28;19919;-61
2023/01/16 12:43:59;;;;;;;;;;;10.50;99.90;;;;;;5087972;28;19909;-63
2023/01/16 12:46:53;;;;;;;;;;;10.70;99.90;;;;;;5095183;28;20014;-65
2023/01/16 12:49:42;;;;;;;;;;;10.80;99.90;;;;;;5019765;28;19920;-60
2023/01/16 12:52:36;;;;;;;;;;;11.00;99.90;;;;;;5070250;28;20464;-61
2023/01/16 12:55:02;;;;;;;;;;;11.20;99.90;;;;;;5069800;28;20365;-63
2023/01/16 12:57:41;;;;;;;;;;;11.40;99.90;;;;;;5098962;28;19937;-64
2023/01/16 13:00:24;;;;;;;;;;;11.50;99.90;;;;;;5096466;28;20002;-64
2023/01/16 13:02:59;;;;;;;;;;;11.60;99.90;;;;;;5101412;28;19955;-64
2023/01/16 13:05:30;;;;;;;;;;;11.70;99.90;;;;;;5094499;28;19920;-64
2023/01/16 13:08:02;;;;;;;;;;;11.80;99.90;;;;;;5088559;28;20423;-63
2023/01/16 13:13:24;;;;;;;;;;;11.80;99.90;;;;;;5095915;28;19920;-64
2023/01/16 13:16:02;;;;;;;;;;;11.70;99.90;;;;;;5102316;28;19908;-63
2023/01/16 13:18:30;;;;;;;;;;;11.60;99.90;;;;;;5088183;28;20397;-64
2023/01/16 13:20:59;;;;;;;;;;;11.50;99.90;;;;;;5089587;28;21327;-64
2023/01/16 13:23:28;;;;;;;;;;;11.40;99.90;;;;;;5090672;28;19942;-64
2023/01/16 13:25:57;;;;;;;;;;;11.20;99.90;;;;;;5082259;28;19922;-64
2023/01/16 13:28:23;;;;;;;;;;;11.20;99.90;;;;;;5104179;28;19912;-65
2023/01/16 13:30:51;;;;;;;;;;;11.10;99.90;;;;;;5098228;28;20011;-65
2023/01/16 13:33:19;;;;;;;;;;;11.00;99.90;;;;;;5084434;28;19908;-64
2023/01/16 13:35:44;;;;;;;;;;;10.90;99.90;;;;;;5061781;28;19920;-65
2023/01/16 13:38:28;;;;;;;;;;;10.80;99.90;;;;;;5099669;28;20345;-65
2023/01/16 13:41:07;;;;;;;;;;;10.80;99.90;;;;;;5099412;28;19916;-64
2023/01/16 13:46:28;;;;;;;;;;;10.80;99.90;;;;;;5093375;28;19918;-64
2023/01/16 13:48:56;;;;;;;;;;;10.70;99.90;;;;;;5092513;28;19912;-65
2023/01/16 13:51:25;;;;;;;;;;;10.80;99.90;;;;;;5084911;28;19919;-64
2023/01/16 13:53:54;;;;;;;;;;;10.80;99.90;;;;;;5092711;28;19935;-64
2023/01/16 13:56:20;;;;;;;;;;;10.90;99.90;;;;;;5086695;28;20208;-63
2023/01/16 13:58:53;;;;;;;;;;;11.10;99.90;;;;;;5087410;28;20370;-66
2023/01/16 14:01:28;;;;;;;;;;;11.30;99.90;;;;;;5104053;28;19919;-64
2023/01/16 14:04:10;;;;;;;;;;;11.50;99.90;;;;;;5097065;28;19912;-64
2023/01/16 14:06:47;;;;;;;;;;;11.50;99.90;;;;;;5069815;28;19916;-64
2023/01/16 14:09:14;;;;;;;;;;;11.60;99.90;;;;;;5085687;28;20060;-64
2023/01/16 14:11:49;;;;;;;;;;;11.60;99.90;;;;;;5090009;28;19919;-64
2023/01/16 14:17:10;;;;;;;;;;;11.30;99.90;;;;;;5088314;28;20030;-62
2023/01/16 14:19:37;;;;;;;;;;;11.10;99.90;;;;;;5097272;28;19934;-62
2023/01/16 14:24:42;;;;;;;;;;;11.00;99.90;;;;;;5092179;28;19998;-63
2023/01/16 14:27:12;;;;;;;;;;;10.80;99.90;;;;;;5078939;28;19912;-63
2023/01/16 14:30:04;;;;;;;;;;;10.80;99.90;;;;;;5062851;28;19958;-63
2023/01/16 14:32:33;;;;;;;;;;;10.70;99.90;;;;;;5084977;28;19912;-63
2023/01/16 14:35:03;;;;;;;;;;;10.70;99.90;;;;;;5079273;28;19912;-63
2023/01/16 14:37:30;;;;;;;;;;;10.60;99.90;;;;;;5072543;28;19912;-63
2023/01/16 14:40:01;;;;;;;;;;;10.60;99.90;;;;;;5090283;28;19911;-62
2023/01/16 14:56:51;;;;;;;;;;;10.50;99.90;;;;;;5097596;28;19958;-64
2023/01/16 14:59:20;;;;;;;;;;;10.50;99.90;;;;;;5082522;28;20021;-61
2023/01/16 15:04:43;;;;;;;;;;;10.40;99.90;;;;;;5109225;28;20007;-64
2023/01/16 15:07:10;;;;;;;;;;;10.30;99.90;;;;;;5084829;28;20030;-63
2023/01/16 15:09:36;;;;;;;;;;;10.30;99.90;;;;;;5088393;28;19918;-64
2023/01/16 15:12:11;;;;;;;;;;;10.20;99.90;;;;;;5098329;28;19922;-63
2023/01/16 15:14:37;;;;;;;;;;;10.30;99.90;;;;;;5081033;28;19916;-62
2023/01/16 15:22:58;;;;;;;;;;;10.10;99.90;;;;;;5105423;28;20075;-64
2023/01/16 15:25:24;;;;;;;;;;;10.10;99.90;;;;;;5104972;28;20347;-63
2023/01/16 15:27:54;;;;;;;;;;;10.10;99.90;;;;;;5074171;28;19965;-63
2023/01/16 15:30:19;;;;;;;;;;;10.00;99.90;;;;;;5078363;28;19912;-63
2023/01/16 15:33:42;;;;;;;;;;;10.10;99.90;;;;;;5064017;28;19907;-62
2023/01/16 15:35:41;;;;;;;;;;;10.00;99.90;;;;;;5078119;28;19912;-63
2023/01/16 15:38:08;;;;;;;;;;;10.00;99.90;;;;;;5061414;28;20016;-63
2023/01/16 15:40:34;;;;;;;;;;;10.00;99.90;;;;;;5072702;28;20465;-65
2023/01/16 15:48:48;;;;;;;;;;;9.80;99.90;;;;;;5090721;28;19923;-65
2023/01/16 15:51:16;;;;;;;;;;;9.80;99.90;;;;;;5053070;28;19913;-65
2023/01/16 15:53:45;;;;;;;;;;;9.80;99.90;;;;;;5066361;28;20405;-65
2023/01/16 15:56:29;;;;;;;;;;;9.80;99.90;;;;;;5083701;28;19951;-64
2023/01/16 15:58:55;;;;;;;;;;;9.80;99.90;;;;;;5083606;28;20065;-64
2023/01/16 16:01:25;;;;;;;;;;;9.80;99.90;;;;;;5071850;28;20378;-66
2023/01/16 16:03:51;;;;;;;;;;;9.80;99.90;;;;;;5073347;28;19919;-62
2023/01/16 16:06:19;;;;;;;;;;;9.80;99.90;;;;;;5073489;28;20002;-65
2023/01/16 16:08:46;;;;;;;;;;;9.80;99.90;;;;;;5066068;28;20285;-65
2023/01/16 16:17:54;;;;;;;;;;;9.90;99.90;;;;;;5094070;28;19969;-66
2023/01/16 16:19:46;;;;;;;;;;;10.00;99.90;;;;;;5089424;28;19919;-64
2023/01/16 16:25:05;;;;;;;;;;;9.80;99.90;;;;;;5086799;28;20017;-64